Date,TemperatureHighF,TemperatureAvgF,TemperatureLowF,DewpointHighF,DewpointAvgF,DewpointLowF,HumidityHigh,HumidityAvg,HumidityLow,PressureMaxIn,PressureMinIn,WindSpeedMaxMPH,WindSpeedAvgMPH,GustSpeedMaxMPH,PrecipitationSumIn
2013-1-1,11,1,-15,0,-11,-23,69,57,38,0.00,40.00,6,2,10,0.00
2013-1-2,22,17,11,8,2,-1,71,53,36,0.00,40.00,3,1,9,0.00
2013-1-3,22,17,8,11,7,0,72,65,57,0.00,40.00,6,4,14,0.00
2013-1-4,28,16,5,8,5,-1,75,63,43,0.00,40.00,6,2,12,0.00
2013-1-5,32,18,0,18,6,-7,76,63,37,0.00,40.00,4,1,11,0.00
2013-1-6,31,21,7,17,11,1,77,66,46,0.00,40.00,6,2,14,0.03
2013-1-7,36,21,7,18,10,1,79,64,35,0.00,40.00,6,2,16,0.00
2013-1-8,37,28,11,24,17,6,82,64,45,0.00,40.00,7,3,14,0.00
2013-1-9,35,31,21,24,18,11,73,58,39,0.00,40.00,11,5,26,0.00
2013-1-10,37,26,15,30,16,8,84,67,30,0.00,40.00,11,4,17,0.13
2013-1-11,42,37,34,37,33,30,84,84,83,0.00,40.00,11,4,17,0.00
2013-1-12,42,29,14,37,16,-2,84,59,45,0.00,40.00,11,5,24,0.00
2013-1-13,15,12,6,0,-2,-7,55,51,48,0.00,40.00,7,4,16,0.10
2013-1-14,16,9,-1,1,-4,-10,68,56,44,0.00,40.00,7,2,17,0.00
2013-1-15,29,16,0,8,0,-7,71,52,28,0.00,40.00,4,1,13,0.00
2013-1-16,31,24,17,20,10,-3,67,55,35,0.00,40.00,9,4,19,0.09
2013-1-17,16,10,2,-3,-6,-11,72,48,33,0.00,40.00,6,2,14,0.00
2013-1-18,40,22,1,24,11,-6,82,66,41,0.00,40.00,8,2,15,0.55
2013-1-19,42,29,7,25,16,-12,82,61,39,0.00,40.00,15,-19,35,0.21
2013-1-20,8,4,-1,-11,-14,-15,51,43,37,0.00,40.00,10,5,30,0.00
2013-1-21,3,-5,-10,-12,-20,-25,58,47,39,0.00,40.00,9,5,21,0.04
2013-1-22,-1,-8,-12,-17,-22,-25,61,52,39,0.00,40.00,5,2,14,0.00
2013-1-23,14,4,-11,-1,-10,-20,67,54,41,0.00,40.00,9,4,25,0.00
2013-1-24,1,-4,-7,-11,-15,-16,65,60,53,0.00,40.00,3,2,10,0.00
2013-1-30,26,21,12,19,12,1,75,68,56,0.00,40.00,8,6,20,9.23
2013-1-31,11,4,-3,-7,-10,-12,66,54,37,0.00,40.00,9,4,18,0.00
2013-2-1,1,-4,-12,-11,-18,-24,65,52,31,0.00,40.00,6,3,15,0.00
2013-2-2,13,3,-3,-9,-11,-16,62,54,27,0.00,40.00,5,2,10,0.03
2013-2-3,15,6,-2,-2,-6,-11,68,58,35,0.00,40.00,6,2,15,0.00
2013-2-4,17,5,-2,-5,-9,-18,66,56,22,0.00,40.00,4,0,10,0.00
2013-2-5,24,13,0,12,3,-10,72,64,48,0.00,40.00,7,2,21,0.38
2013-2-6,25,11,-8,16,3,-16,78,71,43,0.00,40.00,5,2,12,0.00
2013-2-7,28,25,22,22,18,14,82,78,67,0.00,40.00,6,3,14,0.81
2013-2-8,27,16,4,14,3,-6,72,58,25,0.00,40.00,7,-13,14,0.00
2013-2-9,25,16,-2,17,8,-9,75,72,66,0.00,40.00,5,2,13,0.42
2013-2-10,37,30,24,33,24,17,84,79,67,0.00,40.00,11,6,20,0.35
2013-2-11,36,31,24,31,24,10,84,74,54,0.00,40.00,11,5,24,1.11
2013-2-12,28,21,16,13,9,4,77,60,36,0.00,40.00,6,2,14,0.00
2013-2-13,37,25,12,24,15,6,79,68,34,0.00,40.00,3,1,7,0.00
2013-2-14,32,30,16,26,21,0,82,72,45,0.00,40.00,9,4,22,8.20
2013-2-15,22,11,-3,2,-4,-13,69,53,29,0.00,40.00,6,2,14,0.00
2013-2-16,20,2,-12,-6,-13,-20,68,53,22,0.00,40.00,6,-32,12,0.00
2013-2-17,21,1,-19,1,-16,-28,65,48,21,0.00,40.00,8,2,14,0.00
2013-2-18,42,29,20,26,16,3,80,60,35,0.00,40.00,9,4,19,0.37
2013-2-19,25,15,3,18,3,-14,78,61,34,0.00,40.00,9,6,21,1.51
2013-2-20,25,8,-3,-1,-8,-13,70,51,24,0.00,40.00,9,4,18,0.00
2013-2-21,25,12,-7,15,0,-14,75,59,37,0.00,40.00,10,3,21,0.00
2013-2-22,29,25,21,21,18,13,81,74,65,0.00,40.00,9,4,24,4.82
2013-2-23,30,25,21,21,16,12,82,71,47,0.00,40.00,6,2,14,0.36
2013-2-24,35,26,13,18,15,8,77,65,35,0.00,40.00,5,2,10,0.00
2013-2-25,36,24,10,19,14,5,78,66,41,0.00,40.00,3,1,6,0.12
2013-2-26,36,27,15,21,16,9,81,65,39,0.00,40.00,10,4,21,0.00
2013-2-27,35,31,29,24,20,14,75,63,52,0.00,40.00,9,6,21,0.71
2013-2-28,32,29,23,19,13,4,64,51,39,0.00,40.00,7,5,20,0.00
2013-3-1,32,25,17,7,3,-5,51,40,25,0.00,40.00,6,3,15,0.00
2013-3-2,31,18,1,3,-4,-10,72,43,17,0.00,40.00,6,2,14,0.00
2013-3-3,34,15,-5,-1,-8,-17,72,43,10,0.00,40.00,4,1,9,0.00
2013-3-4,30,19,3,8,2,-6,70,48,28,0.00,40.00,8,4,16,0.00
2013-3-5,30,26,24,19,12,3,74,54,39,0.00,40.00,7,5,16,0.32
2013-3-6,34,26,11,17,13,4,74,59,37,0.00,40.00,7,3,14,0.00
2013-3-7,37,22,3,9,4,-3,78,51,23,0.00,40.00,5,1,7,0.00
2013-3-8,40,28,14,18,13,6,78,55,32,0.00,40.00,6,3,17,0.00
2013-3-9,36,32,28,31,25,18,84,74,62,0.00,40.00,10,6,17,0.65
2013-3-10,37,35,30,32,29,25,84,79,62,0.00,40.00,7,3,18,3.02
2013-3-11,35,30,25,27,22,12,84,72,54,0.00,40.00,9,-7,20,1.84
2013-3-12,30,25,19,14,10,4,67,53,39,0.00,40.00,8,5,19,0.26
2013-3-13,34,23,14,9,-2,-10,68,39,14,0.00,40.00,7,4,14,0.04
2013-3-14,37,22,5,19,6,-2,79,53,22,0.00,40.00,4,1,9,0.00
2013-3-15,37,30,22,25,21,15,82,72,46,0.00,40.00,8,2,16,1.79
2013-3-16,32,23,16,16,4,-2,78,47,26,0.00,40.00,7,4,16,0.49
2013-3-17,26,17,6,5,-3,-8,65,43,25,0.00,40.00,8,4,14,0.00
2013-3-18,30,22,15,22,14,5,79,72,60,0.00,40.00,9,5,22,3.31
2013-3-19,24,17,11,7,-1,-7,71,48,29,0.00,40.00,12,8,29,0.00
2013-3-20,21,12,3,-6,-9,-13,55,39,28,0.00,40.00,9,6,19,0.00
2013-3-21,30,15,-1,2,-4,-9,73,48,25,0.00,40.00,6,2,14,0.00
2013-3-22,39,21,1,9,1,-6,75,49,21,0.00,40.00,6,1,13,0.00
2013-3-23,42,30,15,16,10,7,75,49,23,0.00,40.00,4,1,9,0.00
2013-3-24,35,30,27,16,14,10,58,50,37,0.00,40.00,9,4,19,0.00
2013-3-25,38,29,21,17,13,9,78,52,31,0.00,40.00,9,5,17,0.00
2013-3-26,42,33,26,17,13,9,60,45,29,0.00,40.00,7,3,16,0.00
2013-3-27,44,35,25,20,12,5,75,42,20,0.00,40.00,9,2,16,0.00
2013-3-28,46,33,17,15,9,3,80,45,17,0.00,40.00,6,2,11,0.00
2013-3-29,51,35,18,16,10,1,81,44,13,0.00,40.00,3,1,8,0.00
2013-3-30,40,37,30,35,25,-100,84,68,48,0.00,40.00,6,2,11,0.28
2013-3-31,41,34,28,31,19,-1,84,58,20,0.00,40.00,8,4,24,0.00
2013-4-1,33,26,18,6,1,-1,44,35,23,0.00,40.00,9,5,23,0.00
2013-4-2,36,27,17,9,5,2,64,40,24,0.00,40.00,6,3,17,0.00
2013-4-3,43,26,11,11,2,-12,78,46,9,0.00,40.00,4,1,12,0.00
2013-4-4,49,38,29,22,15,10,54,40,29,0.00,40.00,7,3,16,0.00
2013-4-5,44,35,22,26,9,2,82,39,17,0.00,40.00,8,2,11,1.70
2013-4-6,47,37,30,34,24,18,84,62,32,0.00,40.00,11,6,24,0.50
2013-4-7,45,38,33,33,23,17,83,57,33,0.00,40.00,6,3,17,0.00
2013-4-8,39,37,35,32,28,24,81,71,63,0.00,40.00,6,3,13,0.00
2013-4-9,39,36,34,34,29,20,84,77,51,0.00,40.00,9,3,16,0.49
2013-4-10,40,35,29,24,15,2,80,48,21,0.00,40.00,10,5,20,0.67
2013-4-11,35,32,29,26,19,4,80,62,26,0.00,40.00,20,8,34,0.21
2013-4-12,35,32,29,25,23,20,82,72,54,0.00,40.00,4,2,9,0.70
2013-4-13,37,31,24,23,16,10,79,56,33,0.00,40.00,6,3,17,0.04
2013-4-14,33,28,20,27,21,13,85,75,47,0.00,40.00,9,4,23,3.18
2013-4-15,51,41,33,34,22,10,85,54,21,0.00,40.00,9,4,22,0.23
2013-4-16,47,38,31,23,20,16,72,51,29,0.00,40.00,7,3,18,0.00
2013-4-17,39,35,28,31,23,18,81,62,48,0.00,40.00,14,-65,32,0.00
2013-4-18,39,37,35,33,32,31,84,81,73,0.00,40.00,9,4,20,0.08
2013-4-19,37,31,25,32,14,5,83,51,33,0.00,40.00,10,7,27,0.14
2013-4-20,42,30,22,13,4,-6,61,39,13,0.00,40.00,6,3,17,0.00
2013-4-21,40,32,23,28,19,8,83,60,39,0.00,40.00,12,6,21,0.22
2013-4-22,48,44,40,40,36,24,82,75,53,0.00,40.00,9,3,14,0.56
2013-4-23,43,39,27,39,27,15,84,65,38,0.00,40.00,9,6,19,0.19
2013-4-24,51,40,22,26,12,3,82,39,16,0.00,40.00,8,3,18,0.46
2013-4-25,49,39,31,28,20,12,82,51,23,0.00,40.00,7,3,17,0.07
2013-4-26,72,53,37,35,22,19,53,34,14,0.00,40.00,9,3,20,0.00
2013-4-27,71,54,42,46,37,29,82,59,21,0.00,40.00,3,1,14,0.00
2013-4-28,75,60,46,42,29,16,75,37,11,0.00,40.00,5,2,12,0.00
2013-4-29,71,61,50,46,40,32,81,51,29,0.00,40.00,6,2,10,0.00
2013-4-30,85,74,58,50,41,31,75,34,19,0.00,40.00,9,4,17,0.00
2013-5-1,65,54,41,44,34,26,75,50,23,0.00,40.00,10,5,19,0.00
2013-5-2,40,37,32,30,27,24,81,66,57,0.00,40.00,8,6,20,0.01
2013-5-3,40,36,32,36,31,26,85,82,76,0.00,40.00,6,4,13,0.24
2013-5-4,72,54,40,37,34,24,84,53,16,0.00,40.00,9,2,16,0.00
2013-5-5,73,55,43,39,30,14,81,48,11,0.00,40.00,6,2,9,0.00
2013-5-6,76,57,40,36,27,13,81,47,9,0.00,40.00,4,1,9,0.00
2013-5-7,81,65,44,37,19,-1,75,28,4,0.00,40.00,6,2,11,0.00
2013-5-8,81,68,45,38,30,22,65,30,11,0.00,40.00,4,1,7,0.00
2013-5-9,58,54,42,50,44,36,82,70,46,0.00,40.00,4,-66,14,0.46
2013-5-10,65,52,38,36,26,13,82,43,15,0.00,40.00,6,3,12,0.00
2013-5-11,48,45,38,40,23,6,81,48,19,0.00,40.00,12,6,29,0.06
2013-5-12,55,40,33,20,11,1,51,34,13,0.00,40.00,13,4,22,0.00
2013-5-13,61,49,25,18,11,6,75,30,11,0.00,40.00,6,2,13,0.00
2013-5-14,81,60,46,45,30,18,58,35,17,0.00,40.00,8,4,18,0.00
2013-5-15,77,66,60,39,35,28,46,33,17,0.00,40.00,7,4,16,0.00
2013-5-16,82,60,47,43,5,-100,80,41,8,0.00,40.00,8,2,14,0.00
2013-5-17,57,50,48,47,34,-100,82,68,31,0.00,40.00,7,5,14,0.00
2013-5-18,73,58,51,51,44,41,73,61,43,0.00,40.00,6,4,13,0.00
2013-5-19,81,65,56,55,51,48,84,66,31,0.00,40.00,7,3,21,0.00
2013-5-20,82,70,62,56,49,40,81,51,22,0.00,40.00,7,-13,19,0.21
2013-5-21,74,67,60,58,52,45,82,61,36,0.00,40.00,3,1,14,0.00
2013-5-22,62,55,50,54,49,45,82,80,69,0.00,40.00,6,2,14,0.53
2013-5-23,60,52,41,44,22,11,81,38,15,0.00,40.00,7,5,20,0.00
2013-5-24,65,51,31,31,22,14,81,39,14,0.00,40.00,6,2,10,0.00
2013-5-25,65,54,44,34,26,19,69,39,18,0.00,40.00,6,3,12,0.00
2013-5-26,65,56,38,33,25,21,81,36,19,0.00,40.00,10,5,17,0.00
2013-5-27,62,55,51,45,40,25,79,59,35,0.00,40.00,13,6,22,0.00
2013-5-28,56,54,50,50,48,45,83,81,78,0.00,40.00,4,2,11,0.01
2013-5-29,63,59,55,56,53,50,82,81,78,0.00,40.00,5,0,7,0.30
2013-5-30,76,68,62,63,58,55,81,72,50,0.00,40.00,7,4,15,0.94
2013-5-31,76,68,62,55,50,42,73,57,32,0.00,40.00,10,4,19,0.00
2013-6-1,73,64,53,56,47,-100,81,60,36,0.00,40.00,8,2,23,0.00
2013-6-2,61,51,44,41,33,27,79,52,28,0.00,40.00,8,4,20,0.00
2013-6-3,73,57,39,42,33,26,84,49,17,0.00,40.00,6,1,14,0.00
2013-6-4,58,54,51,48,42,32,82,65,37,0.00,40.00,6,3,12,0.44
2013-6-5,56,52,49,48,44,40,82,77,59,0.00,40.00,11,5,22,0.25
2013-6-6,54,52,49,45,44,40,82,75,60,0.00,40.00,7,-7,16,0.07
2013-6-7,67,53,48,48,42,35,82,70,35,0.00,40.00,6,1,11,0.00
2013-6-8,67,55,50,48,45,32,82,72,28,0.00,40.00,7,2,11,0.18
2013-6-9,72,60,52,53,46,41,79,62,39,0.00,40.00,10,5,26,0.00
2013-6-10,73,60,57,53,52,47,81,75,41,0.00,40.00,4,3,9,0.00
2013-6-11,80,71,62,57,54,48,80,57,34,0.00,40.00,4,1,9,0.00
2013-6-12,65,62,60,56,55,54,81,77,69,0.00,40.00,7,2,14,0.02
2013-6-13,63,59,56,55,52,47,82,78,57,0.00,40.00,2,1,9,0.00
2013-6-14,63,63,63,46,46,46,54,54,54,0.00,40.00,5,5,7,0.00
2013-6-15,74,63,58,60,55,46,81,77,54,0.00,40.00,5,2,17,0.03
2013-6-16,73,62,58,59,53,44,82,74,49,0.00,40.00,1,0,5,0.00
2013-6-17,70,57,52,54,49,44,81,74,52,0.00,40.00,6,2,11,0.00
2013-6-18,60,58,51,53,47,37,77,70,43,0.00,40.00,4,2,11,0.00
2013-6-19,66,51,44,51,42,37,82,73,56,0.00,40.00,3,1,5,0.00
2013-6-20,62,59,57,51,48,45,79,68,55,0.00,40.00,2,1,6,0.00
2013-6-22,76,69,63,60,59,57,82,72,54,0.00,40.00,14,4,23,0.12
2013-6-23,68,66,64,60,58,57,82,77,69,0.00,40.00,14,2,23,0.07
2013-6-24,79,69,63,63,60,57,81,74,56,0.00,40.00,1,0,6,0.00
2013-6-25,75,67,65,62,60,58,81,77,61,0.00,40.00,1,0,4,0.00
2013-6-26,72,69,67,65,63,61,81,81,80,0.00,40.00,6,2,11,0.00
2013-6-27,73,66,62,66,60,54,81,79,67,0.00,40.00,1,0,7,0.00
2013-6-28,73,65,61,60,56,51,81,72,56,0.00,40.00,6,2,11,0.17
2013-6-29,68,62,58,57,54,52,81,76,59,0.00,40.00,4,2,11,0.14
2013-6-30,67,55,50,48,43,41,77,66,46,0.00,40.00,2,-135,6,0.00
2013-7-1,71,54,49,51,46,44,82,76,44,0.00,40.00,4,1,9,0.00
2013-7-2,58,55,53,44,43,41,65,62,57,0.00,40.00,4,3,6,0.00
2013-7-3,66,54,50,53,47,43,80,75,55,0.00,40.00,1,0,3,0.00
2013-7-4,74,61,55,55,52,48,82,75,41,0.00,40.00,2,1,6,0.00
2013-7-5,70,64,62,55,54,53,78,71,55,0.00,40.00,2,-27,5,0.00
2013-7-6,76,69,65,59,56,54,74,64,49,0.00,40.00,3,2,7,0.00
2013-7-7,78,72,68,64,60,58,75,67,58,0.00,40.00,3,-29,8,0.00
2013-7-8,80,70,68,67,61,-100,81,77,53,0.00,40.00,4,1,10,1.43
2013-7-9,85,72,66,67,62,60,81,73,46,0.00,40.00,8,2,15,0.00
2013-7-10,70,63,57,63,48,-100,81,68,48,0.00,40.00,6,2,21,0.00
2013-7-11,69,58,54,54,50,49,82,77,48,0.00,40.00,2,0,4,0.00
2013-7-12,68,61,56,52,50,48,80,67,54,0.00,40.00,3,1,4,0.00
2013-7-13,73,66,61,58,51,47,73,61,46,0.00,40.00,3,1,7,0.00
2013-7-14,77,65,57,63,56,51,82,73,59,0.00,40.00,3,-19,6,0.00
2013-7-15,78,68,64,66,60,58,81,77,64,0.00,40.00,4,1,6,0.00
2013-7-16,84,74,72,67,66,64,81,76,51,0.00,40.00,4,1,6,0.00
2013-7-17,83,74,70,70,66,63,81,75,51,0.00,40.00,0,0,4,0.00
2013-7-18,81,73,71,66,64,64,80,75,58,0.00,40.00,1,0,6,0.00
2013-7-19,82,76,66,65,62,54,80,65,57,0.00,40.00,3,2,9,0.00
2013-7-20,77,63,60,56,51,-100,81,69,35,0.00,40.00,2,1,6,0.00
2013-7-21,67,61,55,56,52,44,81,72,58,0.00,40.00,7,-26,13,0.06
2013-7-22,78,65,57,65,57,52,82,77,58,0.00,40.00,6,2,19,0.00
2013-7-23,72,60,50,55,47,40,79,64,51,0.00,40.00,6,-22,19,0.00
2013-7-24,66,54,46,48,44,41,83,73,46,0.00,40.00,0,0,2,0.00
2013-7-25,79,60,53,57,52,47,82,76,42,0.00,40.00,2,0,6,0.00
2013-7-26,72,62,53,60,55,40,81,77,46,0.00,40.00,6,1,20,3.65
2013-7-27,56,51,46,45,41,36,79,69,50,0.00,40.00,4,-12,14,0.00
2013-7-28,59,53,47,47,44,40,79,73,56,0.00,40.00,10,-12,20,0.00
2013-7-29,68,56,49,52,46,42,81,70,50,0.00,40.00,4,2,9,0.00
2013-7-30,74,62,54,58,53,49,82,72,44,0.00,40.00,3,1,5,0.00
2013-7-31,74,64,57,58,55,51,82,73,47,0.00,40.00,2,0,9,0.00
2013-8-1,70,57,51,51,48,44,83,75,39,0.00,40.00,1,0,7,0.00
2013-8-2,68,57,53,52,49,44,81,74,41,0.00,40.00,1,0,10,0.00
2013-8-3,62,52,47,49,45,42,82,77,49,0.00,40.00,0,-18,2,0.00
2013-8-4,65,52,45,49,44,40,82,76,44,0.00,40.00,1,0,3,0.00
2013-8-5,71,60,52,57,51,46,82,74,48,0.00,40.00,4,1,9,0.00
2013-8-6,76,66,63,59,56,49,81,72,38,0.00,40.00,1,0,9,0.00
2013-8-7,66,61,59,58,55,53,82,80,67,0.00,40.00,4,1,11,0.17
2013-8-8,67,61,50,51,48,45,82,64,48,0.00,40.00,1,0,2,0.00
2013-8-9,68,58,54,53,49,46,82,74,56,0.00,40.00,1,0,6,0.00
2013-8-10,71,61,54,51,48,42,81,65,35,0.00,40.00,1,0,6,0.00
2013-8-11,67,58,52,54,50,47,82,77,57,0.00,40.00,1,0,4,0.00
2013-8-12,70,59,55,60,53,49,82,81,70,0.00,40.00,1,0,4,0.00
2013-8-13,55,46,43,45,36,-100,82,73,53,0.00,40.00,4,0,11,0.00
2013-8-14,59,45,39,44,35,-100,83,74,52,0.00,40.00,2,0,6,0.00
2013-8-15,71,52,45,50,38,-100,82,70,35,0.00,40.00,2,0,10,0.00
2013-8-16,73,56,49,53,44,-100,82,70,21,0.00,40.00,1,0,4,0.00
2013-8-17,71,57,52,52,47,-100,82,73,43,0.00,40.00,1,0,2,0.00
2013-8-18,71,58,51,53,50,45,82,74,45,0.00,40.00,1,0,3,0.00
2013-8-19,69,55,56,58,41,-100,82,74,32,0.00,40.00,4,0,12,0.00
2013-8-20,75,66,63,59,57,55,81,72,57,0.00,40.00,2,1,7,0.00
2013-8-21,83,70,63,64,60,57,82,70,54,0.00,40.00,2,1,7,0.00
2013-8-22,78,65,60,63,56,50,82,74,37,0.00,40.00,1,0,6,0.00
2013-8-23,67,58,54,54,51,48,81,77,58,0.00,40.00,5,1,7,0.00
2013-8-24,77,63,58,60,49,-100,75,64,54,0.00,40.00,6,2,12,0.00
2013-8-25,85,75,72,65,62,59,71,64,45,0.00,40.00,6,2,12,0.00
2013-8-26,85,75,68,71,65,59,82,71,55,0.00,40.00,7,1,13,1.56
2013-8-27,76,75,74,70,68,66,81,80,76,0.00,40.00,2,1,6,0.00
2013-8-28,80,76,73,65,62,59,72,63,50,0.00,40.00,4,2,7,0.00
2013-8-29,75,69,64,65,61,58,81,77,64,0.00,40.00,3,1,9,0.00
2013-8-30,79,73,65,68,63,54,80,73,62,0.00,40.00,4,1,17,0.00
2013-8-31,71,61,55,59,51,-100,83,74,57,0.00,40.00,4,1,6,0.00
2013-9-1,78,67,64,63,58,53,82,75,56,0.00,40.00,4,2,12,0.01
2013-9-2,65,56,49,53,48,43,82,74,65,0.00,40.00,6,2,13,0.00
2013-9-3,70,51,42,50,43,38,84,76,36,0.00,40.00,1,0,8,0.00
2013-9-4,73,58,51,59,50,46,82,77,52,0.00,40.00,1,0,4,0.00
2013-9-5,66,56,51,50,46,40,81,71,49,0.00,40.00,4,2,7,0.00
2013-9-6,73,59,51,60,48,39,76,68,55,0.00,40.00,4,1,7,0.00
2013-9-7,85,70,66,62,56,-100,79,66,41,0.00,40.00,6,1,13,0.00
2013-9-8,69,59,53,57,50,44,83,70,58,0.00,40.00,6,3,16,0.00
2013-9-9,84,69,61,66,57,50,77,67,52,0.00,40.00,7,2,12,0.00
2013-9-10,85,74,67,62,60,56,81,64,38,0.00,40.00,3,1,12,0.00
2013-9-11,80,68,57,62,56,48,81,69,34,0.00,40.00,3,1,9,0.00
2013-9-12,59,55,47,51,47,35,83,77,55,0.00,40.00,3,0,9,0.00
2013-9-13,58,44,38,42,36,33,84,76,40,0.00,40.00,2,0,6,0.00
2013-9-14,63,48,39,49,36,-100,83,69,45,0.00,40.00,1,0,6,0.00
2013-9-15,60,54,51,49,46,36,82,75,57,0.00,40.00,5,2,13,0.67
2013-9-16,55,41,33,39,34,29,84,76,39,0.00,40.00,6,1,8,0.00
2013-9-17,60,47,35,50,39,31,84,75,49,0.00,40.00,6,2,8,0.00
2013-9-18,67,57,56,59,51,50,82,81,73,0.00,40.00,6,4,11,2.64
2013-9-19,77,69,65,64,61,59,81,77,61,0.00,40.00,3,1,15,2.00
2013-9-20,66,62,53,59,54,44,81,75,50,0.00,40.00,4,2,11,0.00
2013-9-21,53,48,42,44,37,-100,81,71,48,0.00,40.00,5,2,14,0.00
2013-9-22,51,40,32,37,33,28,84,75,50,0.00,40.00,7,2,10,0.00
2013-9-23,54,44,38,43,37,33,83,77,60,0.00,40.00,6,3,11,0.00
2013-9-24,63,49,40,47,42,35,83,78,50,0.00,40.00,4,2,7,0.00
2013-9-25,61,48,41,45,41,36,83,77,50,0.00,40.00,4,1,6,0.00
2013-9-26,61,51,40,48,43,35,84,75,58,0.00,40.00,6,-60,11,0.00
2013-9-27,59,53,50,46,43,42,75,70,58,0.00,40.00,6,4,9,0.00
2013-9-28,66,56,52,59,44,-100,82,68,49,0.00,40.00,7,4,12,0.46
2013-9-29,62,49,41,48,42,36,83,77,47,0.00,40.00,2,0,14,0.00
2013-9-30,54,51,50,42,39,37,71,64,54,0.00,40.00,3,2,9,0.00
2013-10-1,58,52,47,40,39,37,67,61,49,0.00,40.00,0,0,1,0.00
2013-10-2,65,47,39,40,36,33,83,71,33,0.00,40.00,2,0,5,0.00
2013-10-3,60,56,50,54,47,33,82,72,41,0.00,40.00,8,4,14,0.20
2013-10-4,56,55,54,50,49,48,82,80,78,0.00,40.00,10,4,16,0.34
2013-10-5,61,57,54,55,52,49,82,81,81,0.00,40.00,7,5,17,2.99
2013-10-6,56,49,42,51,41,33,82,74,48,0.00,40.00,4,1,13,0.00
2013-10-7,53,46,40,42,38,35,82,75,56,0.00,40.00,3,1,10,0.00
2013-10-8,55,40,36,38,34,31,83,80,53,0.00,40.00,1,0,4,0.00
2013-10-9,56,52,50,44,41,38,74,66,56,0.00,40.00,5,1,7,0.00
2013-10-10,56,46,40,42,38,36,83,75,54,0.00,40.00,6,1,9,0.00
2013-10-11,61,53,50,46,44,42,79,73,56,0.00,40.00,7,4,19,0.00
2013-10-12,66,58,49,51,39,-100,64,54,42,0.00,40.00,6,3,21,0.00
2013-10-13,50,44,35,39,35,26,83,69,39,0.00,40.00,5,2,18,0.00
2013-10-14,47,35,30,36,29,26,85,79,55,0.00,40.00,6,1,9,0.00
2013-10-15,55,50,46,49,43,36,83,77,65,0.00,40.00,9,5,17,1.81
2013-10-16,49,46,42,42,39,32,81,76,62,0.00,40.00,6,2,12,0.00
2013-10-17,47,39,31,37,32,27,83,77,59,0.00,40.00,2,0,6,0.00
2013-10-18,46,42,34,40,35,29,82,78,65,0.00,40.00,5,1,14,0.00
2013-10-19,43,34,29,33,27,-100,84,79,61,0.00,40.00,4,1,9,0.25
2013-10-20,42,36,30,37,30,26,84,81,71,0.00,40.00,6,2,13,0.01
2013-10-21,42,37,33,37,27,15,82,67,47,0.00,40.00,7,5,22,0.00
2013-10-22,38,33,28,24,20,16,77,61,47,0.00,40.00,7,3,17,0.00
2013-10-23,38,30,26,23,20,17,77,64,44,0.00,40.00,4,1,10,0.00
2013-10-24,37,33,28,23,19,15,80,57,44,0.00,40.00,4,2,13,0.00
2013-10-25,43,31,27,29,24,21,83,77,41,0.00,40.00,4,1,10,0.00
2013-10-26,45,38,38,27,13,-100,65,47,41,0.00,40.00,7,4,21,0.00
2013-10-27,42,35,29,28,25,23,81,69,47,0.00,40.00,4,1,16,0.00
2013-10-28,37,33,27,24,18,11,63,56,41,0.00,40.00,6,3,17,0.00
2013-10-29,40,33,25,32,22,16,73,64,57,0.00,40.00,7,3,12,0.00
2013-10-30,51,45,40,46,39,32,84,80,73,0.00,40.00,6,3,12,0.00
2013-10-31,54,50,42,48,45,36,83,83,81,0.00,40.00,7,2,19,0.13
2013-11-1,44,42,41,37,34,31,81,74,64,0.00,40.00,6,4,19,0.00
2013-11-2,42,38,29,32,27,-100,82,69,54,0.00,40.00,4,2,11,0.00
2013-11-3,40,31,24,32,25,20,83,80,57,0.00,40.00,9,2,16,0.00
2013-11-4,46,43,40,40,35,27,81,73,59,0.00,40.00,9,3,19,0.00
2013-11-5,47,39,32,37,33,28,83,79,55,0.00,40.00,7,2,14,0.81
2013-11-6,39,36,29,34,28,16,82,74,52,0.00,40.00,8,5,18,0.41
2013-11-7,32,28,23,26,19,16,81,71,51,0.00,40.00,6,2,15,0.00
2013-11-8,37,29,24,30,23,19,82,78,60,0.00,40.00,8,1,13,0.14
2013-11-9,43,40,37,35,29,-100,79,69,52,0.00,40.00,10,5,24,0.00
2013-11-10,36,36,36,28,27,27,72,69,68,0.00,40.00,1,1,6,0.00
2013-11-11,37,34,27,29,26,10,78,73,50,0.00,40.00,7,3,19,0.04
2013-11-12,25,19,14,5,3,1,67,52,36,0.00,40.00,6,3,17,0.00
2013-11-13,30,20,15,9,8,5,72,60,35,0.00,40.00,4,1,11,0.00
2013-11-14,42,34,28,30,21,12,80,60,35,0.00,40.00,2,1,9,0.00
2013-11-15,40,32,25,28,24,20,84,73,56,0.00,40.00,2,0,7,0.00
2013-11-16,53,43,38,47,34,-100,84,74,58,0.00,40.00,7,4,19,0.28
2013-11-17,51,46,39,46,39,25,82,78,56,0.00,40.00,10,3,30,0.04
2013-11-18,32,30,29,17,16,15,55,55,55,0.00,40.00,8,8,28,0.00
2013-11-19,33,24,17,18,13,11,78,64,49,0.00,40.00,9,3,14,0.00
2013-11-20,36,33,32,28,24,18,82,68,50,0.00,40.00,7,4,16,3.70
2013-11-21,36,34,31,32,29,20,83,80,63,0.00,40.00,6,2,13,0.06
2013-11-22,31,26,22,21,13,4,72,58,42,0.00,40.00,9,5,16,0.53
2013-11-23,16,11,7,-2,-9,-100,52,45,41,0.00,40.00,8,5,19,0.00
2013-11-24,15,6,1,-1,-7,-8,70,56,38,0.00,40.00,3,1,11,0.00
2013-11-25,33,31,26,18,16,12,59,54,48,0.00,40.00,6,4,16,0.00
2013-11-26,33,19,10,17,1,-6,61,46,37,0.00,40.00,9,5,21,0.24
2013-11-27,24,16,8,13,3,-3,75,57,37,0.00,40.00,6,2,16,0.21
2013-11-28,25,18,7,13,10,1,77,70,45,0.00,40.00,6,2,13,0.13
2013-11-29,24,10,0,13,1,-7,77,69,52,0.00,40.00,6,1,11,0.00
2013-11-30,33,28,25,20,14,-100,67,57,51,0.00,40.00,3,1,9,0.00
2013-12-1,35,26,19,22,18,14,81,74,54,0.00,40.00,2,0,5,0.00
2013-12-2,35,26,17,27,19,12,84,73,54,0.00,40.00,8,3,19,0.86
2013-12-3,32,31,28,27,25,22,83,81,75,0.00,40.00,7,5,17,4.52
2013-12-4,36,32,28,32,27,22,84,83,79,0.00,40.00,8,4,21,0.00
2013-12-5,32,14,4,27,1,-8,84,57,45,0.00,40.00,11,6,24,0.00
2013-12-6,4,0,-3,-8,-10,-12,64,59,46,0.00,40.00,6,4,14,0.00
2013-12-7,2,-4,-9,-12,-16,-100,64,57,44,0.00,40.00,6,2,11,0.00
2013-12-8,11,4,-8,3,-6,-17,68,62,57,0.00,40.00,6,3,12,0.39
2013-12-9,12,7,-9,4,-3,-18,72,64,47,0.00,40.00,7,3,17,0.23
2013-12-10,8,1,-10,-5,-10,-19,67,59,49,0.00,40.00,7,3,16,0.23
2013-12-11,6,-2,-12,-6,-15,-22,62,53,38,0.00,40.00,5,3,17,0.00
2013-12-12,13,2,-10,-1,-10,-19,64,57,43,0.00,40.00,2,1,7,0.48
2013-12-13,15,13,10,1,-1,-5,58,54,47,0.00,40.00,6,2,11,0.22
2013-12-14,20,14,10,9,2,-100,74,60,54,0.00,40.00,7,3,18,0.00
2013-12-15,12,2,-11,2,-10,-20,64,57,41,0.00,40.00,6,3,15,0.00
2013-12-16,11,2,-13,4,-8,-21,73,62,45,0.00,40.00,4,1,7,1.34
2013-12-17,29,20,12,18,11,6,78,69,54,0.00,40.00,6,3,17,0.00
2013-12-18,17,10,0,5,-1,-9,68,61,43,0.00,40.00,5,2,15,0.00
2013-12-19,27,22,8,14,10,1,77,62,53,0.00,40.00,6,2,12,0.06
2013-12-20,22,19,17,15,9,5,77,65,57,0.00,40.00,4,2,14,0.48
2013-12-21,28,23,20,20,14,-100,81,71,54,0.00,40.00,4,1,11,0.00
2013-12-22,25,22,18,15,12,8,77,67,54,0.00,40.00,4,2,12,0.05
2013-12-23,18,15,4,12,7,-4,79,70,54,0.00,40.00,4,2,9,2.01
2013-12-24,13,4,-18,2,-8,-26,71,58,46,0.00,40.00,6,2,12,0.00
2013-12-25,17,12,8,10,4,0,75,68,58,0.00,40.00,4,1,10,0.00
2013-12-26,19,14,8,7,4,0,74,64,50,0.00,40.00,2,1,6,0.06
2013-12-27,34,22,9,21,13,3,79,71,52,0.00,40.00,3,1,9,0.00
2013-12-28,37,24,16,26,16,-100,82,75,58,0.00,40.00,1,0,4,0.00
2013-12-29,28,16,-3,23,4,-17,79,59,38,0.00,40.00,11,6,27,0.00
2013-12-30,-2,-5,-14,-13,-20,-25,62,48,32,0.00,40.00,5,2,7,0.03
2013-12-31,2,-2,-7,-12,-15,-21,64,54,42,0.00,40.00,7,2,14,0.00
2014-1-1,7,-2,-10,-13,-16,-19,63,53,34,0.00,40.00,6,2,9,0.00
2014-1-2,8,1,-14,-12,-14,-23,63,48,34,0.00,40.00,6,3,13,0.00